sensor_id;sensor_type;location;lat;lon;timestamp;temperature;humidity
23120;DHT22;11729;50.836;4.330;2023-03-07T00:02:10;6.40;99.90
23120;DHT22;11729;50.836;4.330;2023-03-07T00:04:36;6.30;99.90
23120;DHT22;11729;50.836;4.330;2023-03-07T00:07:02;6.30;99.90
23120;DHT22;11729;50.836;4.330;2023-03-07T00:09:28;6.30;99.90
23120;DHT22;11729;50.836;4.330;2023-03-07T00:11:54;6.30;99.90
23120;DHT22;11729;50.836;4.330;2023-03-07T00:14:19;6.30;99.90
23120;DHT22;11729;50.836;4.330;2023-03-07T00:16:45;6.30;99.90
23120;DHT22;11729;50.836;4.330;2023-03-07T00:19:11;6.30;99.90
23120;DHT22;11729;50.836;4.330;2023-03-07T00:21:36;6.40;99.90
23120;DHT22;11729;50.836;4.330;2023-03-07T00:24:02;6.40;99.90
23120;DHT22;11729;50.836;4.330;2023-03-07T00:26:29;6.50;99.90
23120;DHT22;11729;50.836;4.330;2023-03-07T00:28:54;6.40;99.90
23120;DHT22;11729;50.836;4.330;2023-03-07T00:31:21;6.40;99.90
23120;DHT22;11729;50.836;4.330;2023-03-07T00:33:47;6.50;99.90
23120;DHT22;11729;50.836;4.330;2023-03-07T00:36:18;6.40;99.90
23120;DHT22;11729;50.836;4.330;2023-03-07T00:38:45;6.50;99.90
23120;DHT22;11729;50.836;4.330;2023-03-07T00:41:15;6.50;99.90
23120;DHT22;11729;50.836;4.330;2023-03-07T00:43:42;6.40;99.90
23120;DHT22;11729;50.836;4.330;2023-03-07T00:46:08;6.50;99.90
23120;DHT22;11729;50.836;4.330;2023-03-07T00:48:37;6.40;99.90
23120;DHT22;11729;50.836;4.330;2023-03-07T00:51:04;6.50;99.90
23120;DHT22;11729;50.836;4.330;2023-03-07T00:53:30;6.50;99.90
23120;DHT22;11729;50.836;4.330;2023-03-07T00:56:07;6.50;99.90
23120;DHT22;11729;50.836;4.330;2023-03-07T00:58:34;6.50;99.90
23120;DHT22;11729;50.836;4.330;2023-03-07T01:01:02;6.40;99.90
23120;DHT22;11729;50.836;4.330;2023-03-07T01:03:28;6.40;99.90
23120;DHT22;11729;50.836;4.330;2023-03-07T01:05:54;6.40;99.90
23120;DHT22;11729;50.836;4.330;2023-03-07T01:08:21;6.40;99.90
23120;DHT22;11729;50.836;4.330;2023-03-07T01:10:47;6.40;99.90
23120;DHT22;11729;50.836;4.330;2023-03-07T01:13:13;6.30;99.90
23120;DHT22;11729;50.836;4.330;2023-03-07T01:15:39;6.20;99.90
23120;DHT22;11729;50.836;4.330;2023-03-07T01:18:06;6.10;99.90
23120;DHT22;11729;50.836;4.330;2023-03-07T01:20:34;6.10;99.90
23120;DHT22;11729;50.836;4.330;2023-03-07T01:23:00;6.10;99.90
23120;DHT22;11729;50.836;4.330;2023-03-07T01:25:26;6.10;99.90
23120;DHT22;11729;50.836;4.330;2023-03-07T01:27:53;6.20;99.90
23120;DHT22;11729;50.836;4.330;2023-03-07T01:30:23;6.20;99.90
23120;DHT22;11729;50.836;4.330;2023-03-07T01:32:58;6.30;99.90
23120;DHT22;11729;50.836;4.330;2023-03-07T01:35:24;6.20;99.90
23120;DHT22;11729;50.836;4.330;2023-03-07T01:37:52;6.10;99.90
23120;DHT22;11729;50.836;4.330;2023-03-07T01:40:19;6.10;99.90
23120;DHT22;11729;50.836;4.330;2023-03-07T01:42:45;6.00;99.90
23120;DHT22;11729;50.836;4.330;2023-03-07T01:47:38;6.10;99.90
23120;DHT22;11729;50.836;4.330;2023-03-07T01:50:09;6.10;99.90
23120;DHT22;11729;50.836;4.330;2023-03-07T01:53:06;6.10;99.90
23120;DHT22;11729;50.836;4.330;2023-03-07T01:55:34;6.20;99.90
23120;DHT22;11729;50.836;4.330;2023-03-07T01:58:06;6.10;99.90
23120;DHT22;11729;50.836;4.330;2023-03-07T02:00:33;6.20;99.90
23120;DHT22;11729;50.836;4.330;2023-03-07T02:05:59;6.00;99.90
23120;DHT22;11729;50.836;4.330;2023-03-07T02:08:27;5.90;99.90
23120;DHT22;11729;50.836;4.330;2023-03-07T02:10:54;5.90;99.90
23120;DHT22;11729;50.836;4.330;2023-03-07T02:13:20;6.00;99.90
23120;DHT22;11729;50.836;4.330;2023-03-07T02:15:46;6.00;99.90
23120;DHT22;11729;50.836;4.330;2023-03-07T02:18:15;6.00;99.90
23120;DHT22;11729;50.836;4.330;2023-03-07T02:23:52;6.00;99.90
23120;DHT22;11729;50.836;4.330;2023-03-07T02:28:59;6.00;99.90
23120;DHT22;11729;50.836;4.330;2023-03-07T02:31:25;5.90;99.90
23120;DHT22;11729;50.836;4.330;2023-03-07T02:33:51;5.70;99.90
23120;DHT22;11729;50.836;4.330;2023-03-07T02:36:21;5.70;99.90
23120;DHT22;11729;50.836;4.330;2023-03-07T02:38:49;5.80;99.90
23120;DHT22;11729;50.836;4.330;2023-03-07T02:41:19;5.70;99.90
23120;DHT22;11729;50.836;4.330;2023-03-07T02:43:45;5.80;99.90
23120;DHT22;11729;50.836;4.330;2023-03-07T02:46:11;5.90;99.90
23120;DHT22;11729;50.836;4.330;2023-03-07T02:48:37;5.90;99.90
23120;DHT22;11729;50.836;4.330;2023-03-07T02:51:02;5.90;99.90
23120;DHT22;11729;50.836;4.330;2023-03-07T02:53:28;5.80;99.90
23120;DHT22;11729;50.836;4.330;2023-03-07T02:55:53;5.90;99.90
23120;DHT22;11729;50.836;4.330;2023-03-07T02:58:19;6.00;99.90
23120;DHT22;11729;50.836;4.330;2023-03-07T03:00:45;5.90;99.90
23120;DHT22;11729;50.836;4.330;2023-03-07T03:03:10;5.90;99.90
23120;DHT22;11729;50.836;4.330;2023-03-07T03:05:36;5.90;99.90
23120;DHT22;11729;50.836;4.330;2023-03-07T03:08:02;5.90;99.90
23120;DHT22;11729;50.836;4.330;2023-03-07T03:10:28;6.00;99.90
23120;DHT22;11729;50.836;4.330;2023-03-07T03:12:53;5.90;99.90
23120;DHT22;11729;50.836;4.330;2023-03-07T03:15:19;6.00;99.90
23120;DHT22;11729;50.836;4.330;2023-03-07T03:17:47;6.00;99.90
23120;DHT22;11729;50.836;4.330;2023-03-07T03:20:14;5.90;99.90
23120;DHT22;11729;50.836;4.330;2023-03-07T03:22:41;5.90;99.90
23120;DHT22;11729;50.836;4.330;2023-03-07T03:25:09;5.80;99.90
23120;DHT22;11729;50.836;4.330;2023-03-07T03:27:35;5.90;99.90
23120;DHT22;11729;50.836;4.330;2023-03-07T03:30:02;5.90;99.90
23120;DHT22;11729;50.836;4.330;2023-03-07T03:32:30;6.00;99.90
23120;DHT22;11729;50.836;4.330;2023-03-07T03:34:56;6.00;99.90
23120;DHT22;11729;50.836;4.330;2023-03-07T03:37:21;6.00;99.90
23120;DHT22;11729;50.836;4.330;2023-03-07T03:39:48;6.10;99.90
23120;DHT22;11729;50.836;4.330;2023-03-07T03:42:14;6.00;99.90
23120;DHT22;11729;50.836;4.330;2023-03-07T03:44:39;6.00;99.90
23120;DHT22;11729;50.836;4.330;2023-03-07T03:47:05;5.90;99.90
23120;DHT22;11729;50.836;4.330;2023-03-07T03:49:31;6.00;99.90
23120;DHT22;11729;50.836;4.330;2023-03-07T03:51:57;6.10;99.90
23120;DHT22;11729;50.836;4.330;2023-03-07T03:54:23;6.00;99.90
23120;DHT22;11729;50.836;4.330;2023-03-07T03:56:48;6.00;99.90
23120;DHT22;11729;50.836;4.330;2023-03-07T03:59:14;6.10;99.90
23120;DHT22;11729;50.836;4.330;2023-03-07T04:01:39;6.10;99.90
23120;DHT22;11729;50.836;4.330;2023-03-07T04:04:05;6.10;99.90
23120;DHT22;11729;50.836;4.330;2023-03-07T04:06:33;6.30;99.90
23120;DHT22;11729;50.836;4.330;2023-03-07T04:08:59;6.20;99.90
23120;DHT22;11729;50.836;4.330;2023-03-07T04:11:25;6.20;99.90
23120;DHT22;11729;50.836;4.330;2023-03-07T04:13:51;6.10;99.90
23120;DHT22;11729;50.836;4.330;2023-03-07T04:16:18;6.20;99.90
23120;DHT22;11729;50.836;4.330;2023-03-07T04:18:44;6.10;99.90
23120;DHT22;11729;50.836;4.330;2023-03-07T04:21:10;6.20;99.90
23120;DHT22;11729;50.836;4.330;2023-03-07T04:23:36;6.20;99.90
23120;DHT22;11729;50.836;4.330;2023-03-07T04:26:03;6.20;99.90
23120;DHT22;11729;50.836;4.330;2023-03-07T04:28:32;6.20;99.90
23120;DHT22;11729;50.836;4.330;2023-03-07T04:31:19;6.20;99.90
23120;DHT22;11729;50.836;4.330;2023-03-07T04:33:46;6.20;99.90
23120;DHT22;11729;50.836;4.330;2023-03-07T04:36:12;6.20;99.90
23120;DHT22;11729;50.836;4.330;2023-03-07T04:38:38;6.20;99.90
23120;DHT22;11729;50.836;4.330;2023-03-07T04:41:06;6.10;99.90
23120;DHT22;11729;50.836;4.330;2023-03-07T04:43:31;6.00;99.90
23120;DHT22;11729;50.836;4.330;2023-03-07T04:45:57;6.00;99.90
23120;DHT22;11729;50.836;4.330;2023-03-07T04:48:22;6.00;99.90
23120;DHT22;11729;50.836;4.330;2023-03-07T04:50:51;6.10;99.90
23120;DHT22;11729;50.836;4.330;2023-03-07T04:53:18;6.10;99.90
23120;DHT22;11729;50.836;4.330;2023-03-07T04:55:44;6.10;99.90
23120;DHT22;11729;50.836;4.330;2023-03-07T04:58:09;6.10;99.90
23120;DHT22;11729;50.836;4.330;2023-03-07T05:00:44;6.10;99.90
23120;DHT22;11729;50.836;4.330;2023-03-07T05:03:11;6.20;99.90
23120;DHT22;11729;50.836;4.330;2023-03-07T05:05:37;6.10;99.90
23120;DHT22;11729;50.836;4.330;2023-03-07T05:08:03;6.10;99.90
23120;DHT22;11729;50.836;4.330;2023-03-07T05:10:33;6.10;99.90
23120;DHT22;11729;50.836;4.330;2023-03-07T05:12:59;6.10;99.90
23120;DHT22;11729;50.836;4.330;2023-03-07T05:15:25;6.10;99.90
23120;DHT22;11729;50.836;4.330;2023-03-07T05:17:51;6.20;99.90
23120;DHT22;11729;50.836;4.330;2023-03-07T05:20:17;6.30;99.90
23120;DHT22;11729;50.836;4.330;2023-03-07T05:22:43;6.30;99.90
23120;DHT22;11729;50.836;4.330;2023-03-07T05:25:09;6.20;99.90
23120;DHT22;11729;50.836;4.330;2023-03-07T05:27:35;6.20;99.90
23120;DHT22;11729;50.836;4.330;2023-03-07T05:30:01;6.10;99.90
23120;DHT22;11729;50.836;4.330;2023-03-07T05:32:27;6.20;99.90
23120;DHT22;11729;50.836;4.330;2023-03-07T05:34:52;6.10;99.90
23120;DHT22;11729;50.836;4.330;2023-03-07T05:37:18;6.10;99.90
23120;DHT22;11729;50.836;4.330;2023-03-07T05:39:44;6.10;99.90
23120;DHT22;11729;50.836;4.330;2023-03-07T05:42:09;6.30;99.90
23120;DHT22;11729;50.836;4.330;2023-03-07T05:44:36;6.10;99.90
23120;DHT22;11729;50.836;4.330;2023-03-07T05:47:01;6.20;99.90
23120;DHT22;11729;50.836;4.330;2023-03-07T05:49:27;6.10;99.90
23120;DHT22;11729;50.836;4.330;2023-03-07T05:51:53;6.10;99.90
23120;DHT22;11729;50.836;4.330;2023-03-07T05:54:18;6.20;99.90
23120;DHT22;11729;50.836;4.330;2023-03-07T05:56:44;6.00;99.90
23120;DHT22;11729;50.836;4.330;2023-03-07T05:59:10;6.00;99.90
23120;DHT22;11729;50.836;4.330;2023-03-07T06:01:40;6.10;99.90
23120;DHT22;11729;50.836;4.330;2023-03-07T06:04:05;6.00;99.90
23120;DHT22;11729;50.836;4.330;2023-03-07T06:06:31;6.10;99.90
23120;DHT22;11729;50.836;4.330;2023-03-07T06:08:57;6.20;99.90
23120;DHT22;11729;50.836;4.330;2023-03-07T06:11:22;6.00;99.90
23120;DHT22;11729;50.836;4.330;2023-03-07T06:13:48;6.00;99.90
23120;DHT22;11729;50.836;4.330;2023-03-07T06:16:14;6.00;99.90
23120;DHT22;11729;50.836;4.330;2023-03-07T06:18:40;6.10;99.90
23120;DHT22;11729;50.836;4.330;2023-03-07T06:21:07;6.10;99.90
23120;DHT22;11729;50.836;4.330;2023-03-07T06:23:35;6.20;99.90
23120;DHT22;11729;50.836;4.330;2023-03-07T06:26:01;6.20;99.90
23120;DHT22;11729;50.836;4.330;2023-03-07T06:28:28;6.10;99.90
23120;DHT22;11729;50.836;4.330;2023-03-07T06:30:54;6.20;99.90
23120;DHT22;11729;50.836;4.330;2023-03-07T06:33:20;6.10;99.90
23120;DHT22;11729;50.836;4.330;2023-03-07T06:35:45;6.20;99.90
23120;DHT22;11729;50.836;4.330;2023-03-07T06:38:13;6.20;99.90
23120;DHT22;11729;50.836;4.330;2023-03-07T06:40:39;6.20;99.90
23120;DHT22;11729;50.836;4.330;2023-03-07T06:43:05;6.30;99.90
23120;DHT22;11729;50.836;4.330;2023-03-07T06:45:31;6.30;99.90
23120;DHT22;11729;50.836;4.330;2023-03-07T06:47:57;6.40;99.90
23120;DHT22;11729;50.836;4.330;2023-03-07T06:50:23;6.40;99.90
23120;DHT22;11729;50.836;4.330;2023-03-07T06:52:49;6.40;99.90
23120;DHT22;11729;50.836;4.330;2023-03-07T06:55:17;6.40;99.90
23120;DHT22;11729;50.836;4.330;2023-03-07T06:57:43;6.40;99.90
23120;DHT22;11729;50.836;4.330;2023-03-07T07:00:10;6.40;99.90
23120;DHT22;11729;50.836;4.330;2023-03-07T07:02:35;6.40;99.90
23120;DHT22;11729;50.836;4.330;2023-03-07T07:05:01;6.40;99.90
23120;DHT22;11729;50.836;4.330;2023-03-07T07:07:27;6.40;99.90
23120;DHT22;11729;50.836;4.330;2023-03-07T07:09:53;6.50;99.90
23120;DHT22;11729;50.836;4.330;2023-03-07T07:12:19;6.50;99.90
23120;DHT22;11729;50.836;4.330;2023-03-07T07:14:45;6.60;99.90
23120;DHT22;11729;50.836;4.330;2023-03-07T07:17:10;6.60;99.90
23120;DHT22;11729;50.836;4.330;2023-03-07T07:19:36;6.50;99.90
23120;DHT22;11729;50.836;4.330;2023-03-07T07:22:03;6.50;99.90
23120;DHT22;11729;50.836;4.330;2023-03-07T07:24:29;6.50;99.90
23120;DHT22;11729;50.836;4.330;2023-03-07T07:26:55;6.60;99.90
23120;DHT22;11729;50.836;4.330;2023-03-07T07:29:21;6.50;99.90
23120;DHT22;11729;50.836;4.330;2023-03-07T07:31:47;6.60;99.90
23120;DHT22;11729;50.836;4.330;2023-03-07T07:34:14;6.60;99.90
23120;DHT22;11729;50.836;4.330;2023-03-07T07:36:39;6.60;99.90
23120;DHT22;11729;50.836;4.330;2023-03-07T07:39:06;6.50;99.90
23120;DHT22;11729;50.836;4.330;2023-03-07T07:41:33;6.50;99.90
23120;DHT22;11729;50.836;4.330;2023-03-07T07:43:59;6.50;99.90
23120;DHT22;11729;50.836;4.330;2023-03-07T07:46:24;6.40;99.90
23120;DHT22;11729;50.836;4.330;2023-03-07T07:48:52;6.40;99.90
23120;DHT22;11729;50.836;4.330;2023-03-07T07:51:18;6.30;99.90
23120;DHT22;11729;50.836;4.330;2023-03-07T07:53:44;6.40;99.90
23120;DHT22;11729;50.836;4.330;2023-03-07T07:56:09;6.30;99.90
23120;DHT22;11729;50.836;4.330;2023-03-07T07:58:35;6.40;99.90
23120;DHT22;11729;50.836;4.330;2023-03-07T08:01:10;6.40;99.90
23120;DHT22;11729;50.836;4.330;2023-03-07T08:03:36;6.40;99.90
23120;DHT22;11729;50.836;4.330;2023-03-07T08:06:01;6.40;99.90
23120;DHT22;11729;50.836;4.330;2023-03-07T08:08:27;6.40;99.90
23120;DHT22;11729;50.836;4.330;2023-03-07T08:10:52;6.50;99.90
23120;DHT22;11729;50.836;4.330;2023-03-07T08:13:18;6.50;99.90
23120;DHT22;11729;50.836;4.330;2023-03-07T08:15:45;6.50;99.90
23120;DHT22;11729;50.836;4.330;2023-03-07T08:18:10;6.60;99.90
23120;DHT22;11729;50.836;4.330;2023-03-07T08:20:37;6.50;99.90
23120;DHT22;11729;50.836;4.330;2023-03-07T08:23:03;6.40;99.90
23120;DHT22;11729;50.836;4.330;2023-03-07T08:25:29;6.30;99.90
23120;DHT22;11729;50.836;4.330;2023-03-07T08:27:54;6.40;99.90
23120;DHT22;11729;50.836;4.330;2023-03-07T08:30:29;6.40;99.90
23120;DHT22;11729;50.836;4.330;2023-03-07T08:32:57;6.50;99.90
23120;DHT22;11729;50.836;4.330;2023-03-07T08:35:24;6.60;99.90
23120;DHT22;11729;50.836;4.330;2023-03-07T08:37:56;6.70;99.90
23120;DHT22;11729;50.836;4.330;2023-03-07T08:40:24;6.60;99.90
23120;DHT22;11729;50.836;4.330;2023-03-07T08:42:51;6.80;99.90
23120;DHT22;11729;50.836;4.330;2023-03-07T08:45:22;6.80;99.90
23120;DHT22;11729;50.836;4.330;2023-03-07T08:47:50;6.90;99.90
23120;DHT22;11729;50.836;4.330;2023-03-07T08:50:16;6.80;99.90
23120;DHT22;11729;50.836;4.330;2023-03-07T08:52:42;6.80;99.90
23120;DHT22;11729;50.836;4.330;2023-03-07T08:55:08;6.70;99.90
23120;DHT22;11729;50.836;4.330;2023-03-07T08:57:34;6.90;99.90
23120;DHT22;11729;50.836;4.330;2023-03-07T09:00:00;6.90;99.90
23120;DHT22;11729;50.836;4.330;2023-03-07T09:02:26;6.90;99.90
23120;DHT22;11729;50.836;4.330;2023-03-07T09:04:52;6.90;99.90
23120;DHT22;11729;50.836;4.330;2023-03-07T09:07:18;7.00;99.90
23120;DHT22;11729;50.836;4.330;2023-03-07T09:09:43;7.00;99.90
23120;DHT22;11729;50.836;4.330;2023-03-07T09:12:09;7.00;99.90
23120;DHT22;11729;50.836;4.330;2023-03-07T09:14:35;7.10;99.90
23120;DHT22;11729;50.836;4.330;2023-03-07T09:17:00;7.10;99.90
23120;DHT22;11729;50.836;4.330;2023-03-07T09:19:27;7.10;99.90
23120;DHT22;11729;50.836;4.330;2023-03-07T09:21:52;7.10;99.90
23120;DHT22;11729;50.836;4.330;2023-03-07T09:24:18;7.30;99.90
23120;DHT22;11729;50.836;4.330;2023-03-07T09:26:44;7.40;99.90
23120;DHT22;11729;50.836;4.330;2023-03-07T09:29:09;7.20;99.90
23120;DHT22;11729;50.836;4.330;2023-03-07T09:31:35;7.00;99.90
23120;DHT22;11729;50.836;4.330;2023-03-07T09:34:01;7.00;99.90
23120;DHT22;11729;50.836;4.330;2023-03-07T09:36:26;6.80;99.90
23120;DHT22;11729;50.836;4.330;2023-03-07T09:38:52;6.80;99.90
23120;DHT22;11729;50.836;4.330;2023-03-07T09:41:41;6.90;99.90
23120;DHT22;11729;50.836;4.330;2023-03-07T09:49:48;6.90;99.90
23120;DHT22;11729;50.836;4.330;2023-03-07T09:52:33;7.00;99.90
23120;DHT22;11729;50.836;4.330;2023-03-07T09:55:08;7.10;99.90
23120;DHT22;11729;50.836;4.330;2023-03-07T09:57:46;7.00;99.90
23120;DHT22;11729;50.836;4.330;2023-03-07T10:00:21;6.90;99.90
23120;DHT22;11729;50.836;4.330;2023-03-07T10:05:49;6.80;99.90
23120;DHT22;11729;50.836;4.330;2023-03-07T10:08:24;6.70;99.90
23120;DHT22;11729;50.836;4.330;2023-03-07T10:19:12;7.00;99.90
23120;DHT22;11729;50.836;4.330;2023-03-07T10:21:51;7.00;99.90
23120;DHT22;11729;50.836;4.330;2023-03-07T10:27:16;7.10;99.90
23120;DHT22;11729;50.836;4.330;2023-03-07T10:29:46;7.10;99.90
23120;DHT22;11729;50.836;4.330;2023-03-07T10:38:00;7.00;99.90
23120;DHT22;11729;50.836;4.330;2023-03-07T10:40:49;6.90;99.90
23120;DHT22;11729;50.836;4.330;2023-03-07T10:43:24;7.00;99.90
23120;DHT22;11729;50.836;4.330;2023-03-07T10:46:16;7.00;99.90
23120;DHT22;11729;50.836;4.330;2023-03-07T10:48:46;7.00;99.90
23120;DHT22;11729;50.836;4.330;2023-03-07T10:54:14;7.30;99.90
23120;DHT22;11729;50.836;4.330;2023-03-07T10:57:17;7.40;99.90
23120;DHT22;11729;50.836;4.330;2023-03-07T10:59:44;7.40;99.90
23120;DHT22;11729;50.836;4.330;2023-03-07T11:02:29;7.40;99.90
23120;DHT22;11729;50.836;4.330;2023-03-07T11:04:55;7.40;99.90
23120;DHT22;11729;50.836;4.330;2023-03-07T11:07:31;7.30;99.90
23120;DHT22;11729;50.836;4.330;2023-03-07T11:10:00;7.10;99.90
23120;DHT22;11729;50.836;4.330;2023-03-07T11:12:28;7.30;99.90
23120;DHT22;11729;50.836;4.330;2023-03-07T11:15:17;7.40;99.90
23120;DHT22;11729;50.836;4.330;2023-03-07T11:17:44;7.30;99.90
23120;DHT22;11729;50.836;4.330;2023-03-07T11:20:24;7.60;99.90
23120;DHT22;11729;50.836;4.330;2023-03-07T11:23:13;7.50;99.90
23120;DHT22;11729;50.836;4.330;2023-03-07T11:25:42;7.30;99.90
23120;DHT22;11729;50.836;4.330;2023-03-07T11:28:32;7.60;99.90
23120;DHT22;11729;50.836;4.330;2023-03-07T11:36:14;7.20;99.90
23120;DHT22;11729;50.836;4.330;2023-03-07T11:41:34;7.20;99.90
23120;DHT22;11729;50.836;4.330;2023-03-07T11:44:04;7.20;99.90
23120;DHT22;11729;50.836;4.330;2023-03-07T11:49:23;7.20;99.90
23120;DHT22;11729;50.836;4.330;2023-03-07T12:08:57;7.10;99.90
23120;DHT22;11729;50.836;4.330;2023-03-07T12:19:45;7.70;99.90
23120;DHT22;11729;50.836;4.330;2023-03-07T12:30:50;7.40;99.90
23120;DHT22;11729;50.836;4.330;2023-03-07T12:33:42;7.20;99.90
23120;DHT22;11729;50.836;4.330;2023-03-07T12:36:19;7.10;99.90
23120;DHT22;11729;50.836;4.330;2023-03-07T12:39:09;7.20;99.90
23120;DHT22;11729;50.836;4.330;2023-03-07T12:44:31;7.20;99.90
23120;DHT22;11729;50.836;4.330;2023-03-07T12:52:51;7.10;99.90
23120;DHT22;11729;50.836;4.330;2023-03-07T12:55:34;7.30;99.90
23120;DHT22;11729;50.836;4.330;2023-03-07T12:58:07;7.20;99.90
23120;DHT22;11729;50.836;4.330;2023-03-07T13:00:42;7.10;99.90
23120;DHT22;11729;50.836;4.330;2023-03-07T13:03:37;7.20;99.90
23120;DHT22;11729;50.836;4.330;2023-03-07T13:05:58;7.30;99.90
23120;DHT22;11729;50.836;4.330;2023-03-07T13:08:24;7.60;99.90
23120;DHT22;11729;50.836;4.330;2023-03-07T13:10:51;7.40;99.90
23120;DHT22;11729;50.836;4.330;2023-03-07T13:16:11;7.20;99.90
23120;DHT22;11729;50.836;4.330;2023-03-07T13:18:38;7.10;99.90
23120;DHT22;11729;50.836;4.330;2023-03-07T13:21:11;7.00;99.90
23120;DHT22;11729;50.836;4.330;2023-03-07T13:23:37;7.00;99.90
23120;DHT22;11729;50.836;4.330;2023-03-07T13:26:05;7.00;99.90
23120;DHT22;11729;50.836;4.330;2023-03-07T13:28:42;7.00;99.90
23120;DHT22;11729;50.836;4.330;2023-03-07T13:33:45;7.20;99.90
23120;DHT22;11729;50.836;4.330;2023-03-07T13:36:34;7.10;99.90
23120;DHT22;11729;50.836;4.330;2023-03-07T13:39:00;7.20;99.90
23120;DHT22;11729;50.836;4.330;2023-03-07T13:41:46;7.20;99.90
23120;DHT22;11729;50.836;4.330;2023-03-07T13:44:28;7.30;99.90
23120;DHT22;11729;50.836;4.330;2023-03-07T13:46:54;6.90;99.90
23120;DHT22;11729;50.836;4.330;2023-03-07T13:49:39;6.80;99.90
23120;DHT22;11729;50.836;4.330;2023-03-07T13:52:21;7.00;99.90
23120;DHT22;11729;50.836;4.330;2023-03-07T13:54:48;7.30;99.90
23120;DHT22;11729;50.836;4.330;2023-03-07T13:57:15;7.40;99.90
23120;DHT22;11729;50.836;4.330;2023-03-07T13:59:46;7.60;99.90
23120;DHT22;11729;50.836;4.330;2023-03-07T14:02:14;7.80;99.90
23120;DHT22;11729;50.836;4.330;2023-03-07T14:04:50;7.50;99.90
23120;DHT22;11729;50.836;4.330;2023-03-07T14:09:55;7.70;99.90
23120;DHT22;11729;50.836;4.330;2023-03-07T14:15:30;7.50;99.90
23120;DHT22;11729;50.836;4.330;2023-03-07T14:28:48;7.80;99.90
23120;DHT22;11729;50.836;4.330;2023-03-07T14:31:25;7.90;99.90
23120;DHT22;11729;50.836;4.330;2023-03-07T14:33:52;7.60;99.90
23120;DHT22;11729;50.836;4.330;2023-03-07T14:36:24;7.60;99.90
23120;DHT22;11729;50.836;4.330;2023-03-07T14:38:53;7.50;99.90
23120;DHT22;11729;50.836;4.330;2023-03-07T14:41:39;7.40;99.90
23120;DHT22;11729;50.836;4.330;2023-03-07T14:44:39;7.50;99.90
23120;DHT22;11729;50.836;4.330;2023-03-07T14:52:44;7.20;99.90
23120;DHT22;11729;50.836;4.330;2023-03-07T14:55:39;7.30;99.90
23120;DHT22;11729;50.836;4.330;2023-03-07T14:58:06;7.40;99.90
23120;DHT22;11729;50.836;4.330;2023-03-07T15:00:32;7.30;99.90
23120;DHT22;11729;50.836;4.330;2023-03-07T15:03:05;7.30;99.90
23120;DHT22;11729;50.836;4.330;2023-03-07T15:05:52;7.30;99.90
23120;DHT22;11729;50.836;4.330;2023-03-07T15:13:35;7.40;99.90
23120;DHT22;11729;50.836;4.330;2023-03-07T15:16:06;7.60;99.90
23120;DHT22;11729;50.836;4.330;2023-03-07T15:18:40;7.50;99.90
23120;DHT22;11729;50.836;4.330;2023-03-07T15:21:14;7.20;99.90
23120;DHT22;11729;50.836;4.330;2023-03-07T15:23:42;7.00;99.90
23120;DHT22;11729;50.836;4.330;2023-03-07T15:26:14;7.00;99.90
23120;DHT22;11729;50.836;4.330;2023-03-07T15:28:45;6.90;99.90
23120;DHT22;11729;50.836;4.330;2023-03-07T15:31:11;7.00;99.90
23120;DHT22;11729;50.836;4.330;2023-03-07T15:33:40;7.00;99.90
23120;DHT22;11729;50.836;4.330;2023-03-07T15:38:40;6.90;99.90
23120;DHT22;11729;50.836;4.330;2023-03-07T15:46:46;6.60;99.90
23120;DHT22;11729;50.836;4.330;2023-03-07T15:49:29;6.40;99.90
23120;DHT22;11729;50.836;4.330;2023-03-07T15:51:59;6.40;99.90
23120;DHT22;11729;50.836;4.330;2023-03-07T15:57:06;6.10;99.90
23120;DHT22;11729;50.836;4.330;2023-03-07T15:59:45;6.00;99.90
23120;DHT22;11729;50.836;4.330;2023-03-07T16:04:59;6.00;99.90
23120;DHT22;11729;50.836;4.330;2023-03-07T16:07:25;5.90;99.90
23120;DHT22;11729;50.836;4.330;2023-03-07T16:09:50;6.00;99.90
23120;DHT22;11729;50.836;4.330;2023-03-07T16:12:21;6.10;99.90
23120;DHT22;11729;50.836;4.330;2023-03-07T16:14:50;6.30;99.90
23120;DHT22;11729;50.836;4.330;2023-03-07T16:17:24;6.30;99.90
23120;DHT22;11729;50.836;4.330;2023-03-07T16:19:51;6.20;99.90
23120;DHT22;11729;50.836;4.330;2023-03-07T16:22:18;6.10;99.90
23120;DHT22;11729;50.836;4.330;2023-03-07T16:24:44;6.30;99.90
23120;DHT22;11729;50.836;4.330;2023-03-07T16:27:18;6.40;99.90
23120;DHT22;11729;50.836;4.330;2023-03-07T16:29:46;6.20;99.90
23120;DHT22;11729;50.836;4.330;2023-03-07T16:32:17;6.10;99.90
23120;DHT22;11729;50.836;4.330;2023-03-07T16:34:43;6.10;99.90
23120;DHT22;11729;50.836;4.330;2023-03-07T16:37:09;5.90;99.90
23120;DHT22;11729;50.836;4.330;2023-03-07T16:39:35;6.00;99.90
23120;DHT22;11729;50.836;4.330;2023-03-07T16:42:01;6.00;99.90
23120;DHT22;11729;50.836;4.330;2023-03-07T16:44:28;6.10;99.90
23120;DHT22;11729;50.836;4.330;2023-03-07T16:47:03;5.80;99.90
23120;DHT22;11729;50.836;4.330;2023-03-07T16:49:30;5.80;99.90
23120;DHT22;11729;50.836;4.330;2023-03-07T16:51:56;5.80;99.90
23120;DHT22;11729;50.836;4.330;2023-03-07T16:54:21;5.60;99.90
23120;DHT22;11729;50.836;4.330;2023-03-07T16:56:49;5.50;99.90
23120;DHT22;11729;50.836;4.330;2023-03-07T16:59:17;5.40;99.90
23120;DHT22;11729;50.836;4.330;2023-03-07T17:01:46;5.40;99.90
23120;DHT22;11729;50.836;4.330;2023-03-07T17:04:12;5.40;99.90
23120;DHT22;11729;50.836;4.330;2023-03-07T17:06:38;5.40;99.90
23120;DHT22;11729;50.836;4.330;2023-03-07T17:09:05;5.50;99.90
23120;DHT22;11729;50.836;4.330;2023-03-07T17:11:32;5.60;99.90
23120;DHT22;11729;50.836;4.330;2023-03-07T17:14:01;5.60;99.90
23120;DHT22;11729;50.836;4.330;2023-03-07T17:16:27;5.70;99.90
23120;DHT22;11729;50.836;4.330;2023-03-07T17:18:53;5.80;99.90
23120;DHT22;11729;50.836;4.330;2023-03-07T17:21:20;5.80;99.90
23120;DHT22;11729;50.836;4.330;2023-03-07T17:23:47;6.00;99.90
23120;DHT22;11729;50.836;4.330;2023-03-07T17:26:31;5.90;99.90
23120;DHT22;11729;50.836;4.330;2023-03-07T17:29:02;5.70;99.90
23120;DHT22;11729;50.836;4.330;2023-03-07T17:31:29;5.50;99.90
23120;DHT22;11729;50.836;4.330;2023-03-07T17:33:54;5.40;99.90
23120;DHT22;11729;50.836;4.330;2023-03-07T17:36:20;5.30;99.90
23120;DHT22;11729;50.836;4.330;2023-03-07T17:38:46;5.30;99.90
23120;DHT22;11729;50.836;4.330;2023-03-07T17:41:11;5.40;99.90
23120;DHT22;11729;50.836;4.330;2023-03-07T17:43:38;5.50;99.90
23120;DHT22;11729;50.836;4.330;2023-03-07T17:46:08;5.30;99.90
23120;DHT22;11729;50.836;4.330;2023-03-07T17:48:35;5.30;99.90
23120;DHT22;11729;50.836;4.330;2023-03-07T17:51:06;5.60;99.90
23120;DHT22;11729;50.836;4.330;2023-03-07T17:53:34;5.50;99.90
23120;DHT22;11729;50.836;4.330;2023-03-07T17:56:11;5.60;99.90
23120;DHT22;11729;50.836;4.330;2023-03-07T17:58:43;5.60;99.90
23120;DHT22;11729;50.836;4.330;2023-03-07T18:01:09;5.50;99.90
23120;DHT22;11729;50.836;4.330;2023-03-07T18:03:37;5.50;99.90
23120;DHT22;11729;50.836;4.330;2023-03-07T18:06:03;5.40;99.90
23120;DHT22;11729;50.836;4.330;2023-03-07T18:08:29;5.20;99.90
23120;DHT22;11729;50.836;4.330;2023-03-07T18:11:09;5.10;99.90
23120;DHT22;11729;50.836;4.330;2023-03-07T18:13:36;5.30;99.90
23120;DHT22;11729;50.836;4.330;2023-03-07T18:16:02;5.30;99.90